sensor_id;sensor_type;location;lat;lon;timestamp;P1;durP1;ratioP1;P2;durP2;ratioP2
22705;SDS011;11520;51.198;4.468;2023-05-07T00:00:20;16.65;;;9.90;;
22705;SDS011;11520;51.198;4.468;2023-05-07T00:02:46;13.20;;;10.13;;
22705;SDS011;11520;51.198;4.468;2023-05-07T00:05:13;11.73;;;9.68;;
22705;SDS011;11520;51.198;4.468;2023-05-07T00:07:40;12.43;;;9.88;;
22705;SDS011;11520;51.198;4.468;2023-05-07T00:10:06;12.45;;;9.05;;
22705;SDS011;11520;51.198;4.468;2023-05-07T00:12:32;14.30;;;9.88;;
22705;SDS011;11520;51.198;4.468;2023-05-07T00:15:04;11.80;;;9.35;;
22705;SDS011;11520;51.198;4.468;2023-05-07T00:17:30;13.85;;;9.50;;
22705;SDS011;11520;51.198;4.468;2023-05-07T00:19:58;13.70;;;10.52;;
22705;SDS011;11520;51.198;4.468;2023-05-07T00:22:23;14.45;;;10.18;;
22705;SDS011;11520;51.198;4.468;2023-05-07T00:24:50;14.43;;;10.00;;
22705;SDS011;11520;51.198;4.468;2023-05-07T00:27:16;12.70;;;9.30;;
22705;SDS011;11520;51.198;4.468;2023-05-07T00:29:41;12.10;;;9.55;;
22705;SDS011;11520;51.198;4.468;2023-05-07T00:32:09;11.77;;;9.45;;
22705;SDS011;11520;51.198;4.468;2023-05-07T00:34:35;14.80;;;9.73;;
22705;SDS011;11520;51.198;4.468;2023-05-07T00:37:01;14.07;;;9.45;;
22705;SDS011;11520;51.198;4.468;2023-05-07T00:39:26;12.65;;;9.55;;
22705;SDS011;11520;51.198;4.468;2023-05-07T00:41:52;11.07;;;8.90;;
22705;SDS011;11520;51.198;4.468;2023-05-07T00:44:17;12.50;;;9.43;;
22705;SDS011;11520;51.198;4.468;2023-05-07T00:46:43;10.45;;;9.35;;
22705;SDS011;11520;51.198;4.468;2023-05-07T00:49:09;13.43;;;10.18;;
22705;SDS011;11520;51.198;4.468;2023-05-07T00:51:36;11.80;;;8.80;;
22705;SDS011;11520;51.198;4.468;2023-05-07T00:54:02;13.07;;;9.75;;
22705;SDS011;11520;51.198;4.468;2023-05-07T00:56:28;14.50;;;9.25;;
22705;SDS011;11520;51.198;4.468;2023-05-07T00:58:53;13.07;;;9.68;;
22705;SDS011;11520;51.198;4.468;2023-05-07T01:01:20;15.55;;;10.40;;
22705;SDS011;11520;51.198;4.468;2023-05-07T01:03:46;13.48;;;9.77;;
22705;SDS011;11520;51.198;4.468;2023-05-07T01:06:13;14.50;;;9.38;;
22705;SDS011;11520;51.198;4.468;2023-05-07T01:08:42;12.82;;;9.02;;
22705;SDS011;11520;51.198;4.468;2023-05-07T01:11:09;10.98;;;9.43;;
22705;SDS011;11520;51.198;4.468;2023-05-07T01:13:36;14.18;;;9.43;;
22705;SDS011;11520;51.198;4.468;2023-05-07T01:16:03;14.10;;;9.20;;
22705;SDS011;11520;51.198;4.468;2023-05-07T01:18:33;11.88;;;8.98;;
22705;SDS011;11520;51.198;4.468;2023-05-07T01:20:59;14.85;;;9.63;;
22705;SDS011;11520;51.198;4.468;2023-05-07T01:23:28;14.63;;;9.65;;
22705;SDS011;11520;51.198;4.468;2023-05-07T01:25:56;14.70;;;9.95;;
22705;SDS011;11520;51.198;4.468;2023-05-07T01:28:22;13.10;;;9.43;;
22705;SDS011;11520;51.198;4.468;2023-05-07T01:30:51;16.23;;;9.10;;
22705;SDS011;11520;51.198;4.468;2023-05-07T01:33:20;14.50;;;11.02;;
22705;SDS011;11520;51.198;4.468;2023-05-07T01:35:47;19.63;;;11.27;;
22705;SDS011;11520;51.198;4.468;2023-05-07T01:38:16;15.10;;;10.10;;
22705;SDS011;11520;51.198;4.468;2023-05-07T01:40:44;15.13;;;10.25;;
22705;SDS011;11520;51.198;4.468;2023-05-07T01:43:10;13.50;;;9.50;;
22705;SDS011;11520;51.198;4.468;2023-05-07T01:45:36;12.57;;;10.13;;
22705;SDS011;11520;51.198;4.468;2023-05-07T01:48:03;12.52;;;11.00;;
22705;SDS011;11520;51.198;4.468;2023-05-07T01:50:29;14.68;;;10.45;;
22705;SDS011;11520;51.198;4.468;2023-05-07T01:53:00;11.75;;;9.98;;
22705;SDS011;11520;51.198;4.468;2023-05-07T01:55:26;15.07;;;10.23;;
22705;SDS011;11520;51.198;4.468;2023-05-07T01:57:52;12.88;;;10.63;;
22705;SDS011;11520;51.198;4.468;2023-05-07T02:00:18;13.27;;;10.38;;
22705;SDS011;11520;51.198;4.468;2023-05-07T02:02:44;16.60;;;11.40;;
22705;SDS011;11520;51.198;4.468;2023-05-07T02:05:10;14.95;;;10.93;;
22705;SDS011;11520;51.198;4.468;2023-05-07T02:07:35;14.10;;;10.57;;
22705;SDS011;11520;51.198;4.468;2023-05-07T02:10:01;14.48;;;11.70;;
22705;SDS011;11520;51.198;4.468;2023-05-07T02:12:27;14.10;;;11.38;;
22705;SDS011;11520;51.198;4.468;2023-05-07T02:14:53;14.05;;;10.43;;
22705;SDS011;11520;51.198;4.468;2023-05-07T02:17:19;13.38;;;11.45;;
22705;SDS011;11520;51.198;4.468;2023-05-07T02:19:45;17.13;;;11.82;;
22705;SDS011;11520;51.198;4.468;2023-05-07T02:22:10;16.92;;;11.27;;
22705;SDS011;11520;51.198;4.468;2023-05-07T02:24:36;14.60;;;11.65;;
22705;SDS011;11520;51.198;4.468;2023-05-07T02:27:02;13.50;;;10.63;;
22705;SDS011;11520;51.198;4.468;2023-05-07T02:29:28;12.35;;;11.02;;
22705;SDS011;11520;51.198;4.468;2023-05-07T02:31:54;15.48;;;11.35;;
22705;SDS011;11520;51.198;4.468;2023-05-07T02:34:20;13.02;;;11.27;;
22705;SDS011;11520;51.198;4.468;2023-05-07T02:36:46;15.57;;;11.07;;
22705;SDS011;11520;51.198;4.468;2023-05-07T02:39:12;13.52;;;9.90;;
22705;SDS011;11520;51.198;4.468;2023-05-07T02:41:38;13.18;;;10.45;;
22705;SDS011;11520;51.198;4.468;2023-05-07T02:44:04;14.65;;;11.23;;
22705;SDS011;11520;51.198;4.468;2023-05-07T02:46:30;12.82;;;10.23;;
22705;SDS011;11520;51.198;4.468;2023-05-07T02:48:56;10.40;;;9.05;;
22705;SDS011;11520;51.198;4.468;2023-05-07T02:51:22;13.95;;;10.57;;
22705;SDS011;11520;51.198;4.468;2023-05-07T02:53:48;14.25;;;9.82;;
22705;SDS011;11520;51.198;4.468;2023-05-07T02:56:14;12.48;;;10.65;;
22705;SDS011;11520;51.198;4.468;2023-05-07T02:58:39;16.75;;;10.77;;
22705;SDS011;11520;51.198;4.468;2023-05-07T03:01:06;11.70;;;10.50;;
22705;SDS011;11520;51.198;4.468;2023-05-07T03:03:32;15.18;;;10.80;;
22705;SDS011;11520;51.198;4.468;2023-05-07T03:05:58;15.23;;;9.82;;
22705;SDS011;11520;51.198;4.468;2023-05-07T03:08:24;12.95;;;10.75;;
22705;SDS011;11520;51.198;4.468;2023-05-07T03:10:50;17.30;;;11.27;;
22705;SDS011;11520;51.198;4.468;2023-05-07T03:13:16;14.93;;;11.60;;
22705;SDS011;11520;51.198;4.468;2023-05-07T03:15:42;13.02;;;10.50;;
22705;SDS011;11520;51.198;4.468;2023-05-07T03:18:08;12.63;;;10.60;;
22705;SDS011;11520;51.198;4.468;2023-05-07T03:20:34;12.02;;;10.13;;
22705;SDS011;11520;51.198;4.468;2023-05-07T03:23:01;12.32;;;10.82;;
22705;SDS011;11520;51.198;4.468;2023-05-07T03:25:27;15.40;;;10.88;;
22705;SDS011;11520;51.198;4.468;2023-05-07T03:27:53;13.70;;;10.77;;
22705;SDS011;11520;51.198;4.468;2023-05-07T03:30:18;13.18;;;10.68;;
22705;SDS011;11520;51.198;4.468;2023-05-07T03:32:45;11.88;;;10.68;;
22705;SDS011;11520;51.198;4.468;2023-05-07T03:35:10;13.70;;;10.95;;
22705;SDS011;11520;51.198;4.468;2023-05-07T03:37:37;16.27;;;10.70;;
22705;SDS011;11520;51.198;4.468;2023-05-07T03:40:03;14.30;;;10.98;;
22705;SDS011;11520;51.198;4.468;2023-05-07T03:42:30;14.55;;;10.90;;
22705;SDS011;11520;51.198;4.468;2023-05-07T03:44:55;13.38;;;10.82;;
22705;SDS011;11520;51.198;4.468;2023-05-07T03:47:21;13.52;;;10.57;;
22705;SDS011;11520;51.198;4.468;2023-05-07T03:49:47;14.20;;;11.25;;
22705;SDS011;11520;51.198;4.468;2023-05-07T03:52:14;12.48;;;10.38;;
22705;SDS011;11520;51.198;4.468;2023-05-07T03:54:40;11.52;;;10.32;;
22705;SDS011;11520;51.198;4.468;2023-05-07T03:57:05;15.40;;;11.43;;
22705;SDS011;11520;51.198;4.468;2023-05-07T03:59:31;13.48;;;10.73;;
22705;SDS011;11520;51.198;4.468;2023-05-07T04:01:57;14.02;;;10.90;;
22705;SDS011;11520;51.198;4.468;2023-05-07T04:04:23;14.88;;;10.18;;
22705;SDS011;11520;51.198;4.468;2023-05-07T04:06:48;14.77;;;12.10;;
22705;SDS011;11520;51.198;4.468;2023-05-07T04:09:14;12.35;;;10.02;;
22705;SDS011;11520;51.198;4.468;2023-05-07T04:11:40;14.25;;;11.20;;
22705;SDS011;11520;51.198;4.468;2023-05-07T04:14:05;14.68;;;10.25;;
22705;SDS011;11520;51.198;4.468;2023-05-07T04:16:31;12.75;;;10.95;;
22705;SDS011;11520;51.198;4.468;2023-05-07T04:18:57;16.83;;;11.63;;
22705;SDS011;11520;51.198;4.468;2023-05-07T04:21:22;12.38;;;10.60;;
22705;SDS011;11520;51.198;4.468;2023-05-07T04:23:48;19.08;;;11.18;;
22705;SDS011;11520;51.198;4.468;2023-05-07T04:26:14;15.15;;;11.57;;
22705;SDS011;11520;51.198;4.468;2023-05-07T04:28:40;14.60;;;11.90;;
22705;SDS011;11520;51.198;4.468;2023-05-07T04:31:06;17.60;;;11.35;;
22705;SDS011;11520;51.198;4.468;2023-05-07T04:33:33;14.48;;;11.35;;
22705;SDS011;11520;51.198;4.468;2023-05-07T04:36:01;15.15;;;11.48;;
22705;SDS011;11520;51.198;4.468;2023-05-07T04:38:30;13.68;;;10.90;;
22705;SDS011;11520;51.198;4.468;2023-05-07T04:40:56;14.07;;;10.63;;
22705;SDS011;11520;51.198;4.468;2023-05-07T04:43:22;13.38;;;11.25;;
22705;SDS011;11520;51.198;4.468;2023-05-07T04:45:49;18.33;;;11.00;;
22705;SDS011;11520;51.198;4.468;2023-05-07T04:48:16;15.30;;;10.95;;
22705;SDS011;11520;51.198;4.468;2023-05-07T04:50:44;13.20;;;10.85;;
22705;SDS011;11520;51.198;4.468;2023-05-07T04:53:12;14.13;;;10.85;;
22705;SDS011;11520;51.198;4.468;2023-05-07T04:55:38;12.55;;;10.63;;
22705;SDS011;11520;51.198;4.468;2023-05-07T04:58:03;13.65;;;10.27;;
22705;SDS011;11520;51.198;4.468;2023-05-07T05:00:30;11.13;;;9.88;;
22705;SDS011;11520;51.198;4.468;2023-05-07T05:02:55;10.73;;;9.63;;
22705;SDS011;11520;51.198;4.468;2023-05-07T05:05:21;13.23;;;10.20;;
22705;SDS011;11520;51.198;4.468;2023-05-07T05:07:47;14.43;;;10.75;;
22705;SDS011;11520;51.198;4.468;2023-05-07T05:10:12;13.85;;;10.43;;
22705;SDS011;11520;51.198;4.468;2023-05-07T05:12:38;13.45;;;10.32;;
22705;SDS011;11520;51.198;4.468;2023-05-07T05:15:04;13.38;;;10.63;;
22705;SDS011;11520;51.198;4.468;2023-05-07T05:17:30;16.73;;;11.50;;
22705;SDS011;11520;51.198;4.468;2023-05-07T05:19:56;14.20;;;10.68;;
22705;SDS011;11520;51.198;4.468;2023-05-07T05:22:22;15.00;;;10.50;;
22705;SDS011;11520;51.198;4.468;2023-05-07T05:24:49;11.85;;;10.55;;
22705;SDS011;11520;51.198;4.468;2023-05-07T05:27:14;13.55;;;9.80;;
22705;SDS011;11520;51.198;4.468;2023-05-07T05:29:40;12.05;;;8.93;;
22705;SDS011;11520;51.198;4.468;2023-05-07T05:32:06;14.02;;;9.95;;
22705;SDS011;11520;51.198;4.468;2023-05-07T05:34:32;13.55;;;10.75;;
22705;SDS011;11520;51.198;4.468;2023-05-07T05:36:58;17.45;;;11.32;;
22705;SDS011;11520;51.198;4.468;2023-05-07T05:39:24;16.30;;;11.73;;
22705;SDS011;11520;51.198;4.468;2023-05-07T05:41:50;13.95;;;10.18;;
22705;SDS011;11520;51.198;4.468;2023-05-07T05:44:16;13.02;;;10.73;;
22705;SDS011;11520;51.198;4.468;2023-05-07T05:46:41;13.57;;;10.52;;
22705;SDS011;11520;51.198;4.468;2023-05-07T05:49:07;12.10;;;10.00;;
22705;SDS011;11520;51.198;4.468;2023-05-07T05:51:33;12.52;;;10.23;;
22705;SDS011;11520;51.198;4.468;2023-05-07T05:53:59;17.15;;;9.75;;
22705;SDS011;11520;51.198;4.468;2023-05-07T05:56:24;11.10;;;8.80;;
22705;SDS011;11520;51.198;4.468;2023-05-07T05:58:50;13.25;;;10.07;;
22705;SDS011;11520;51.198;4.468;2023-05-07T06:01:17;11.35;;;9.77;;
22705;SDS011;11520;51.198;4.468;2023-05-07T06:03:43;14.30;;;9.88;;
22705;SDS011;11520;51.198;4.468;2023-05-07T06:06:09;11.10;;;9.75;;
22705;SDS011;11520;51.198;4.468;2023-05-07T06:08:35;11.77;;;9.95;;
22705;SDS011;11520;51.198;4.468;2023-05-07T06:11:01;12.55;;;10.10;;
22705;SDS011;11520;51.198;4.468;2023-05-07T06:13:27;11.82;;;9.77;;
22705;SDS011;11520;51.198;4.468;2023-05-07T06:15:52;10.98;;;9.88;;
22705;SDS011;11520;51.198;4.468;2023-05-07T06:18:18;12.80;;;10.48;;
22705;SDS011;11520;51.198;4.468;2023-05-07T06:20:44;12.32;;;9.60;;
22705;SDS011;11520;51.198;4.468;2023-05-07T06:23:11;12.55;;;10.05;;
22705;SDS011;11520;51.198;4.468;2023-05-07T06:25:36;11.27;;;9.80;;
22705;SDS011;11520;51.198;4.468;2023-05-07T06:28:02;12.38;;;10.25;;
22705;SDS011;11520;51.198;4.468;2023-05-07T06:30:27;14.77;;;10.50;;
22705;SDS011;11520;51.198;4.468;2023-05-07T06:32:53;13.73;;;9.82;;
22705;SDS011;11520;51.198;4.468;2023-05-07T06:35:19;12.32;;;10.07;;
22705;SDS011;11520;51.198;4.468;2023-05-07T06:37:44;13.02;;;10.70;;
22705;SDS011;11520;51.198;4.468;2023-05-07T06:40:10;13.10;;;9.95;;
22705;SDS011;11520;51.198;4.468;2023-05-07T06:42:36;10.80;;;9.40;;
22705;SDS011;11520;51.198;4.468;2023-05-07T06:45:03;12.93;;;9.52;;
22705;SDS011;11520;51.198;4.468;2023-05-07T06:47:29;11.65;;;9.25;;
22705;SDS011;11520;51.198;4.468;2023-05-07T06:49:55;28.35;;;10.77;;
22705;SDS011;11520;51.198;4.468;2023-05-07T06:52:21;10.68;;;7.88;;
22705;SDS011;11520;51.198;4.468;2023-05-07T06:54:47;15.32;;;9.15;;
22705;SDS011;11520;51.198;4.468;2023-05-07T06:57:13;10.05;;;8.27;;
22705;SDS011;11520;51.198;4.468;2023-05-07T06:59:39;12.75;;;9.55;;
22705;SDS011;11520;51.198;4.468;2023-05-07T07:02:05;12.82;;;9.50;;
22705;SDS011;11520;51.198;4.468;2023-05-07T07:04:31;11.20;;;8.95;;
22705;SDS011;11520;51.198;4.468;2023-05-07T07:06:56;11.25;;;8.93;;
22705;SDS011;11520;51.198;4.468;2023-05-07T07:09:22;12.18;;;9.93;;
22705;SDS011;11520;51.198;4.468;2023-05-07T07:11:48;12.52;;;9.60;;
22705;SDS011;11520;51.198;4.468;2023-05-07T07:14:14;13.55;;;10.45;;
22705;SDS011;11520;51.198;4.468;2023-05-07T07:16:39;12.43;;;9.15;;
22705;SDS011;11520;51.198;4.468;2023-05-07T07:19:05;10.38;;;9.30;;
22705;SDS011;11520;51.198;4.468;2023-05-07T07:21:31;13.95;;;9.73;;
22705;SDS011;11520;51.198;4.468;2023-05-07T07:23:57;13.40;;;9.93;;
22705;SDS011;11520;51.198;4.468;2023-05-07T07:26:22;11.20;;;9.20;;
22705;SDS011;11520;51.198;4.468;2023-05-07T07:28:48;11.02;;;9.55;;
22705;SDS011;11520;51.198;4.468;2023-05-07T07:31:14;11.70;;;9.75;;
22705;SDS011;11520;51.198;4.468;2023-05-07T07:33:40;11.60;;;9.05;;
22705;SDS011;11520;51.198;4.468;2023-05-07T07:36:06;12.00;;;10.50;;
22705;SDS011;11520;51.198;4.468;2023-05-07T07:38:33;10.48;;;9.10;;
22705;SDS011;11520;51.198;4.468;2023-05-07T07:40:59;13.82;;;9.15;;
22705;SDS011;11520;51.198;4.468;2023-05-07T07:43:26;12.05;;;9.57;;
22705;SDS011;11520;51.198;4.468;2023-05-07T07:45:52;10.30;;;8.05;;
22705;SDS011;11520;51.198;4.468;2023-05-07T07:48:18;11.80;;;8.15;;
22705;SDS011;11520;51.198;4.468;2023-05-07T07:50:44;13.20;;;8.07;;
22705;SDS011;11520;51.198;4.468;2023-05-07T07:53:13;12.73;;;8.07;;
22705;SDS011;11520;51.198;4.468;2023-05-07T07:55:39;13.63;;;7.80;;
22705;SDS011;11520;51.198;4.468;2023-05-07T07:58:05;20.88;;;8.07;;
22705;SDS011;11520;51.198;4.468;2023-05-07T08:00:31;10.75;;;7.40;;
22705;SDS011;11520;51.198;4.468;2023-05-07T08:02:56;10.35;;;6.82;;
22705;SDS011;11520;51.198;4.468;2023-05-07T08:05:22;12.65;;;7.63;;
22705;SDS011;11520;51.198;4.468;2023-05-07T08:07:48;12.82;;;7.25;;
22705;SDS011;11520;51.198;4.468;2023-05-07T08:10:18;8.55;;;6.90;;
22705;SDS011;11520;51.198;4.468;2023-05-07T08:12:50;12.30;;;7.55;;
22705;SDS011;11520;51.198;4.468;2023-05-07T08:15:16;11.13;;;6.80;;
22705;SDS011;11520;51.198;4.468;2023-05-07T08:17:42;10.40;;;6.40;;
22705;SDS011;11520;51.198;4.468;2023-05-07T08:20:09;8.93;;;6.38;;
22705;SDS011;11520;51.198;4.468;2023-05-07T08:22:35;12.23;;;7.43;;
22705;SDS011;11520;51.198;4.468;2023-05-07T08:25:01;12.88;;;7.35;;
22705;SDS011;11520;51.198;4.468;2023-05-07T08:27:27;14.68;;;6.80;;
22705;SDS011;11520;51.198;4.468;2023-05-07T08:29:53;9.60;;;6.47;;
22705;SDS011;11520;51.198;4.468;2023-05-07T08:32:19;13.20;;;7.03;;
22705;SDS011;11520;51.198;4.468;2023-05-07T08:34:46;11.43;;;7.25;;
22705;SDS011;11520;51.198;4.468;2023-05-07T08:37:12;11.10;;;6.55;;
22705;SDS011;11520;51.198;4.468;2023-05-07T08:39:38;15.38;;;7.75;;
22705;SDS011;11520;51.198;4.468;2023-05-07T08:42:04;10.38;;;7.10;;
22705;SDS011;11520;51.198;4.468;2023-05-07T08:44:33;13.40;;;7.30;;
22705;SDS011;11520;51.198;4.468;2023-05-07T08:47:02;8.30;;;7.25;;
22705;SDS011;11520;51.198;4.468;2023-05-07T08:49:31;16.50;;;8.23;;
22705;SDS011;11520;51.198;4.468;2023-05-07T08:51:58;13.43;;;9.02;;
22705;SDS011;11520;51.198;4.468;2023-05-07T08:54:24;12.85;;;8.63;;
22705;SDS011;11520;51.198;4.468;2023-05-07T08:56:50;11.60;;;8.52;;
22705;SDS011;11520;51.198;4.468;2023-05-07T08:59:16;13.57;;;9.32;;
22705;SDS011;11520;51.198;4.468;2023-05-07T09:01:42;12.70;;;8.50;;
22705;SDS011;11520;51.198;4.468;2023-05-07T09:06:37;12.65;;;8.38;;
22705;SDS011;11520;51.198;4.468;2023-05-07T09:09:06;13.15;;;7.85;;
22705;SDS011;11520;51.198;4.468;2023-05-07T09:11:32;13.48;;;8.10;;
22705;SDS011;11520;51.198;4.468;2023-05-07T09:13:58;10.30;;;7.70;;
22705;SDS011;11520;51.198;4.468;2023-05-07T09:16:28;12.60;;;7.65;;
22705;SDS011;11520;51.198;4.468;2023-05-07T09:18:56;13.32;;;8.25;;
22705;SDS011;11520;51.198;4.468;2023-05-07T09:21:23;14.25;;;8.80;;
22705;SDS011;11520;51.198;4.468;2023-05-07T09:23:52;13.95;;;7.93;;
22705;SDS011;11520;51.198;4.468;2023-05-07T09:26:22;17.35;;;9.48;;
22705;SDS011;11520;51.198;4.468;2023-05-07T09:28:49;14.63;;;9.02;;
22705;SDS011;11520;51.198;4.468;2023-05-07T09:31:16;10.93;;;7.80;;
22705;SDS011;11520;51.198;4.468;2023-05-07T09:33:42;14.35;;;8.57;;
22705;SDS011;11520;51.198;4.468;2023-05-07T09:36:08;13.65;;;9.27;;
22705;SDS011;11520;51.198;4.468;2023-05-07T09:38:35;14.25;;;9.20;;
22705;SDS011;11520;51.198;4.468;2023-05-07T09:41:06;10.90;;;8.05;;
22705;SDS011;11520;51.198;4.468;2023-05-07T09:43:37;15.05;;;9.25;;
22705;SDS011;11520;51.198;4.468;2023-05-07T09:46:07;10.18;;;7.90;;
22705;SDS011;11520;51.198;4.468;2023-05-07T09:48:37;11.93;;;6.70;;
22705;SDS011;11520;51.198;4.468;2023-05-07T09:51:06;12.13;;;6.70;;
22705;SDS011;11520;51.198;4.468;2023-05-07T09:53:43;10.45;;;6.10;;
22705;SDS011;11520;51.198;4.468;2023-05-07T09:56:11;8.93;;;5.25;;
22705;SDS011;11520;51.198;4.468;2023-05-07T09:58:39;12.48;;;5.30;;
22705;SDS011;11520;51.198;4.468;2023-05-07T10:01:06;10.48;;;5.25;;
22705;SDS011;11520;51.198;4.468;2023-05-07T10:03:32;9.65;;;5.35;;
22705;SDS011;11520;51.198;4.468;2023-05-07T10:06:01;8.80;;;5.25;;
22705;SDS011;11520;51.198;4.468;2023-05-07T10:08:28;11.90;;;4.88;;
22705;SDS011;11520;51.198;4.468;2023-05-07T10:10:55;8.30;;;4.82;;
22705;SDS011;11520;51.198;4.468;2023-05-07T10:13:21;10.65;;;4.63;;
22705;SDS011;11520;51.198;4.468;2023-05-07T10:15:48;7.50;;;4.05;;
22705;SDS011;11520;51.198;4.468;2023-05-07T10:18:15;7.45;;;4.72;;
22705;SDS011;11520;51.198;4.468;2023-05-07T10:20:41;11.85;;;5.15;;
22705;SDS011;11520;51.198;4.468;2023-05-07T10:23:10;8.25;;;5.32;;
22705;SDS011;11520;51.198;4.468;2023-05-07T10:25:39;7.97;;;5.03;;
22705;SDS011;11520;51.198;4.468;2023-05-07T10:28:06;9.38;;;5.35;;
22705;SDS011;11520;51.198;4.468;2023-05-07T10:33:46;7.07;;;4.63;;
22705;SDS011;11520;51.198;4.468;2023-05-07T10:36:13;7.95;;;3.47;;
22705;SDS011;11520;51.198;4.468;2023-05-07T10:38:39;8.40;;;3.10;;
22705;SDS011;11520;51.198;4.468;2023-05-07T10:41:05;7.60;;;4.00;;
22705;SDS011;11520;51.198;4.468;2023-05-07T10:43:40;7.85;;;3.72;;
22705;SDS011;11520;51.198;4.468;2023-05-07T10:46:15;6.78;;;2.90;;
22705;SDS011;11520;51.198;4.468;2023-05-07T10:49:14;8.63;;;2.70;;
22705;SDS011;11520;51.198;4.468;2023-05-07T10:51:34;6.22;;;2.90;;
22705;SDS011;11520;51.198;4.468;2023-05-07T10:56:36;6.97;;;3.50;;
22705;SDS011;11520;51.198;4.468;2023-05-07T11:04:22;6.63;;;2.75;;
22705;SDS011;11520;51.198;4.468;2023-05-07T11:09:54;6.55;;;3.03;;
22705;SDS011;11520;51.198;4.468;2023-05-07T11:15:05;5.88;;;2.38;;
22705;SDS011;11520;51.198;4.468;2023-05-07T11:17:35;6.03;;;2.92;;
22705;SDS011;11520;51.198;4.468;2023-05-07T11:20:17;8.13;;;2.75;;
22705;SDS011;11520;51.198;4.468;2023-05-07T11:22:43;5.57;;;2.72;;
22705;SDS011;11520;51.198;4.468;2023-05-07T11:25:09;5.05;;;3.15;;
22705;SDS011;11520;51.198;4.468;2023-05-07T11:27:35;7.05;;;3.28;;
22705;SDS011;11520;51.198;4.468;2023-05-07T11:30:01;6.40;;;2.88;;
22705;SDS011;11520;51.198;4.468;2023-05-07T11:32:28;6.65;;;3.38;;
22705;SDS011;11520;51.198;4.468;2023-05-07T11:34:55;7.05;;;3.53;;
22705;SDS011;11520;51.198;4.468;2023-05-07T11:37:23;8.10;;;3.30;;
22705;SDS011;11520;51.198;4.468;2023-05-07T11:39:50;6.72;;;2.72;;
22705;SDS011;11520;51.198;4.468;2023-05-07T11:42:30;3.67;;;2.22;;
22705;SDS011;11520;51.198;4.468;2023-05-07T11:44:57;5.50;;;2.30;;
22705;SDS011;11520;51.198;4.468;2023-05-07T11:47:23;5.03;;;1.92;;
22705;SDS011;11520;51.198;4.468;2023-05-07T11:49:51;6.95;;;2.92;;
22705;SDS011;11520;51.198;4.468;2023-05-07T11:52:18;6.30;;;2.92;;
22705;SDS011;11520;51.198;4.468;2023-05-07T11:54:52;5.13;;;2.00;;
22705;SDS011;11520;51.198;4.468;2023-05-07T11:57:20;5.50;;;2.42;;
22705;SDS011;11520;51.198;4.468;2023-05-07T11:59:46;7.03;;;2.17;;
22705;SDS011;11520;51.198;4.468;2023-05-07T12:02:16;5.53;;;2.45;;
22705;SDS011;11520;51.198;4.468;2023-05-07T12:04:43;8.38;;;3.00;;
22705;SDS011;11520;51.198;4.468;2023-05-07T12:07:14;5.03;;;2.70;;
22705;SDS011;11520;51.198;4.468;2023-05-07T12:09:41;6.18;;;2.60;;
22705;SDS011;11520;51.198;4.468;2023-05-07T12:12:08;4.88;;;2.80;;
22705;SDS011;11520;51.198;4.468;2023-05-07T12:14:42;7.95;;;2.50;;
22705;SDS011;11520;51.198;4.468;2023-05-07T12:17:10;6.28;;;2.58;;
22705;SDS011;11520;51.198;4.468;2023-05-07T12:19:39;8.30;;;2.65;;
22705;SDS011;11520;51.198;4.468;2023-05-07T12:22:09;6.28;;;2.63;;
22705;SDS011;11520;51.198;4.468;2023-05-07T12:24:45;5.00;;;2.53;;
22705;SDS011;11520;51.198;4.468;2023-05-07T12:27:12;4.00;;;2.15;;
22705;SDS011;11520;51.198;4.468;2023-05-07T12:29:46;6.60;;;2.45;;
22705;SDS011;11520;51.198;4.468;2023-05-07T12:32:15;4.22;;;2.60;;
22705;SDS011;11520;51.198;4.468;2023-05-07T12:34:43;5.28;;;2.13;;
22705;SDS011;11520;51.198;4.468;2023-05-07T12:37:09;6.95;;;2.25;;
22705;SDS011;11520;51.198;4.468;2023-05-07T12:39:35;4.07;;;2.40;;
22705;SDS011;11520;51.198;4.468;2023-05-07T12:42:00;5.03;;;2.42;;
22705;SDS011;11520;51.198;4.468;2023-05-07T12:44:30;5.10;;;3.15;;
22705;SDS011;11520;51.198;4.468;2023-05-07T12:46:57;3.72;;;2.58;;
22705;SDS011;11520;51.198;4.468;2023-05-07T12:49:23;6.68;;;2.90;;
22705;SDS011;11520;51.198;4.468;2023-05-07T12:51:50;6.32;;;3.00;;
22705;SDS011;11520;51.198;4.468;2023-05-07T12:54:29;5.28;;;2.85;;
22705;SDS011;11520;51.198;4.468;2023-05-07T12:57:02;5.60;;;2.28;;
22705;SDS011;11520;51.198;4.468;2023-05-07T12:59:39;6.30;;;2.47;;
22705;SDS011;11520;51.198;4.468;2023-05-07T13:02:06;7.50;;;2.33;;
22705;SDS011;11520;51.198;4.468;2023-05-07T13:04:33;5.68;;;2.63;;
22705;SDS011;11520;51.198;4.468;2023-05-07T13:06:59;6.10;;;2.30;;
22705;SDS011;11520;51.198;4.468;2023-05-07T13:09:25;4.95;;;2.33;;
22705;SDS011;11520;51.198;4.468;2023-05-07T13:11:50;7.50;;;3.13;;
22705;SDS011;11520;51.198;4.468;2023-05-07T13:14:16;7.97;;;2.22;;
22705;SDS011;11520;51.198;4.468;2023-05-07T13:16:42;6.50;;;2.20;;
22705;SDS011;11520;51.198;4.468;2023-05-07T13:19:07;4.57;;;1.83;;
22705;SDS011;11520;51.198;4.468;2023-05-07T13:21:33;7.55;;;2.30;;
22705;SDS011;11520;51.198;4.468;2023-05-07T13:23:59;5.45;;;2.10;;
22705;SDS011;11520;51.198;4.468;2023-05-07T13:26:25;6.78;;;2.28;;
22705;SDS011;11520;51.198;4.468;2023-05-07T13:28:53;2.83;;;2.00;;
22705;SDS011;11520;51.198;4.468;2023-05-07T13:31:19;6.07;;;1.98;;
22705;SDS011;11520;51.198;4.468;2023-05-07T13:33:49;5.68;;;2.15;;
22705;SDS011;11520;51.198;4.468;2023-05-07T13:36:15;5.88;;;2.15;;
22705;SDS011;11520;51.198;4.468;2023-05-07T13:38:40;2.90;;;1.75;;
22705;SDS011;11520;51.198;4.468;2023-05-07T13:41:06;4.18;;;1.90;;
22705;SDS011;11520;51.198;4.468;2023-05-07T13:43:34;3.08;;;1.65;;
22705;SDS011;11520;51.198;4.468;2023-05-07T13:46:02;4.07;;;1.88;;
22705;SDS011;11520;51.198;4.468;2023-05-07T13:48:27;6.10;;;2.08;;
22705;SDS011;11520;51.198;4.468;2023-05-07T13:50:53;3.78;;;1.92;;
22705;SDS011;11520;51.198;4.468;2023-05-07T13:53:19;3.88;;;1.70;;
22705;SDS011;11520;51.198;4.468;2023-05-07T13:55:44;4.30;;;1.50;;
22705;SDS011;11520;51.198;4.468;2023-05-07T13:58:10;3.40;;;1.75;;
22705;SDS011;11520;51.198;4.468;2023-05-07T14:00:37;4.18;;;1.55;;
22705;SDS011;11520;51.198;4.468;2023-05-07T14:03:04;5.30;;;1.98;;
22705;SDS011;11520;51.198;4.468;2023-05-07T14:05:30;5.72;;;1.90;;
22705;SDS011;11520;51.198;4.468;2023-05-07T14:07:59;4.53;;;1.58;;
22705;SDS011;11520;51.198;4.468;2023-05-07T14:10:26;4.57;;;1.63;;
22705;SDS011;11520;51.198;4.468;2023-05-07T14:12:52;4.50;;;1.73;;
22705;SDS011;11520;51.198;4.468;2023-05-07T14:15:18;4.07;;;1.75;;
22705;SDS011;11520;51.198;4.468;2023-05-07T14:17:44;5.47;;;1.63;;
22705;SDS011;11520;51.198;4.468;2023-05-07T14:20:12;5.55;;;1.80;;
22705;SDS011;11520;51.198;4.468;2023-05-07T14:22:37;2.78;;;1.42;;
22705;SDS011;11520;51.198;4.468;2023-05-07T14:25:03;6.82;;;1.98;;
22705;SDS011;11520;51.198;4.468;2023-05-07T14:27:30;5.10;;;2.10;;
22705;SDS011;11520;51.198;4.468;2023-05-07T14:29:55;4.22;;;2.05;;
22705;SDS011;11520;51.198;4.468;2023-05-07T14:32:21;3.00;;;1.70;;
22705;SDS011;11520;51.198;4.468;2023-05-07T14:34:47;6.93;;;1.77;;
22705;SDS011;11520;51.198;4.468;2023-05-07T14:37:13;4.13;;;1.52;;
22705;SDS011;11520;51.198;4.468;2023-05-07T14:39:38;4.25;;;1.60;;
22705;SDS011;11520;51.198;4.468;2023-05-07T14:42:06;3.75;;;1.73;;
22705;SDS011;11520;51.198;4.468;2023-05-07T14:44:33;5.25;;;1.42;;
22705;SDS011;11520;51.198;4.468;2023-05-07T14:46:59;4.38;;;1.65;;
22705;SDS011;11520;51.198;4.468;2023-05-07T14:49:25;4.55;;;1.42;;